createdAt,value
2023-04-22T00:01:53.839Z,79.67
2023-04-22T00:04:21.458Z,79.67
2023-04-22T00:06:49.048Z,79.37
2023-04-22T00:09:16.430Z,80.13
2023-04-22T00:11:45.146Z,79.49
2023-04-22T00:14:12.523Z,79.60
2023-04-22T00:16:40.621Z,80.62
2023-04-22T00:19:08.505Z,80.83
2023-04-22T00:21:36.150Z,82.19
2023-04-22T00:24:03.863Z,82.12
2023-04-22T00:26:31.244Z,81.91
2023-04-22T00:29:00.002Z,81.57
2023-04-22T00:31:27.472Z,81.60
2023-04-22T00:33:55.183Z,81.50
2023-04-22T00:36:22.543Z,81.81
2023-04-22T00:38:51.034Z,84.32
2023-04-22T00:41:19.354Z,83.35
2023-04-22T00:43:46.984Z,82.93
2023-04-22T00:46:17.221Z,82.90
2023-04-22T00:48:44.756Z,82.73
2023-04-22T00:51:12.172Z,83.13
2023-04-22T00:53:39.550Z,82.35
2023-04-22T00:56:07.812Z,82.19
2023-04-22T00:58:35.370Z,82.00
2023-04-22T01:01:03.392Z,81.18
2023-04-22T01:03:33.757Z,81.59
2023-04-22T01:06:01.446Z,82.25
2023-04-22T01:08:30.530Z,82.50
2023-04-22T01:10:58.962Z,81.64
2023-04-22T01:13:26.403Z,81.49
2023-04-22T01:15:54.824Z,81.53
2023-04-22T01:18:23.155Z,81.32
2023-04-22T01:20:51.904Z,81.52
2023-04-22T01:23:22.072Z,80.88
2023-04-22T01:25:50.763Z,80.73
2023-04-22T01:28:18.670Z,81.63
2023-04-22T01:30:46.290Z,81.72
2023-04-22T01:33:13.819Z,82.78
2023-04-22T01:35:41.312Z,82.78
2023-04-22T01:38:10.471Z,83.39
2023-04-22T01:40:39.812Z,82.87
2023-04-22T01:43:07.581Z,83.02
2023-04-22T01:45:35.238Z,83.94
2023-04-22T01:48:02.870Z,84.03
2023-04-22T01:50:30.336Z,84.57
2023-04-22T01:52:58.239Z,84.97
2023-04-22T01:55:25.962Z,85.68
2023-04-22T01:57:54.657Z,85.17
2023-04-22T02:00:22.095Z,85.03
2023-04-22T02:02:49.525Z,86.01
2023-04-22T02:05:17.263Z,85.86
2023-04-22T02:07:44.644Z,85.49
2023-04-22T02:10:12.899Z,85.15
2023-04-22T02:12:40.324Z,85.43
2023-04-22T02:15:10.676Z,85.50
2023-04-22T02:17:38.430Z,85.51
2023-04-22T02:20:06.983Z,85.39
2023-04-22T02:22:34.513Z,85.31
2023-04-22T02:25:02.079Z,84.68
2023-04-22T02:27:29.448Z,85.45
2023-04-22T02:29:56.828Z,84.97
2023-04-22T02:32:25.572Z,84.40
2023-04-22T02:34:53.465Z,84.31
2023-04-22T02:37:22.746Z,84.35
2023-04-22T02:39:50.227Z,83.14
2023-04-22T02:42:17.570Z,83.24
2023-04-22T02:44:44.941Z,82.87
2023-04-22T02:47:12.357Z,82.58
2023-04-22T02:49:41.469Z,82.42
2023-04-22T02:52:09.028Z,82.42
2023-04-22T02:54:36.394Z,81.80
2023-04-22T02:57:04.010Z,82.22
2023-04-22T02:59:31.938Z,81.75
2023-04-22T03:01:59.567Z,81.54
2023-04-22T03:04:27.077Z,80.96
2023-04-22T03:06:56.122Z,81.29
2023-04-22T03:09:23.487Z,81.26
2023-04-22T03:11:50.847Z,81.72
2023-04-22T03:14:18.316Z,81.66
2023-04-22T03:16:45.710Z,81.42
2023-04-22T03:19:13.073Z,81.67
2023-04-22T03:21:40.464Z,81.00
2023-04-22T03:24:09.347Z,81.11
2023-04-22T03:26:36.704Z,80.73
2023-04-22T03:29:04.606Z,80.98
2023-04-22T03:31:32.032Z,80.96
2023-04-22T03:33:59.457Z,81.85
2023-04-22T03:36:27.332Z,81.43
2023-04-22T03:38:54.971Z,81.50
2023-04-22T03:41:26.367Z,81.99
2023-04-22T03:43:53.754Z,82.04
2023-04-22T03:46:21.509Z,82.04
2023-04-22T03:48:48.958Z,82.12
2023-04-22T03:51:16.364Z,82.01
2023-04-22T03:53:43.720Z,81.91
2023-04-22T03:56:11.137Z,81.74
2023-04-22T03:58:39.861Z,82.05
2023-04-22T04:01:07.861Z,81.97
2023-04-22T04:03:35.553Z,82.55
2023-04-22T04:06:03.250Z,83.65
2023-04-22T04:08:30.697Z,83.32
2023-04-22T04:10:58.102Z,82.31
2023-04-22T04:13:25.561Z,81.87
2023-04-22T04:15:54.414Z,80.97
2023-04-22T04:18:21.819Z,81.03
2023-04-22T04:20:49.300Z,79.89
2023-04-22T04:23:16.690Z,79.43
2023-04-22T04:25:44.102Z,79.08
2023-04-22T04:28:12.821Z,78.79
2023-04-22T04:30:41.524Z,78.77
2023-04-22T04:33:12.334Z,78.77
2023-04-22T04:35:40.092Z,78.62
2023-04-22T04:38:07.495Z,78.07
2023-04-22T04:40:35.717Z,78.88
2023-04-22T04:43:08.162Z,78.79
2023-04-22T04:45:36.498Z,78.55
2023-04-22T04:48:04.119Z,78.46
2023-04-22T04:50:32.838Z,78.01
2023-04-22T04:53:00.406Z,78.31
2023-04-22T04:55:27.847Z,78.00
2023-04-22T04:57:55.197Z,76.17
2023-04-22T05:00:22.613Z,74.32
2023-04-22T05:02:50.190Z,73.83
2023-04-22T05:05:17.937Z,73.62
2023-04-22T05:07:46.723Z,73.74
2023-04-22T05:10:14.578Z,73.19
2023-04-22T05:12:41.997Z,72.45
2023-04-22T05:15:10.157Z,71.71
2023-04-22T05:17:37.556Z,72.26
2023-04-22T05:20:05.647Z,71.30
2023-04-22T05:22:33.068Z,70.87
2023-04-22T05:25:01.770Z,69.77
2023-04-22T05:27:30.454Z,68.84
2023-04-22T05:29:57.874Z,67.51
2023-04-22T05:32:25.345Z,66.77
2023-04-22T05:34:52.827Z,66.68
2023-04-22T05:37:20.461Z,65.81
2023-04-22T05:39:47.828Z,66.17
2023-04-22T05:42:16.611Z,65.77
2023-04-22T05:44:44.086Z,64.93
2023-04-22T05:47:11.476Z,63.36
2023-04-22T05:49:38.965Z,62.65
2023-04-22T05:52:06.506Z,62.26
2023-04-22T05:54:33.913Z,60.49
2023-04-22T05:57:02.403Z,60.24
2023-04-22T05:59:31.115Z,59.20
2023-04-22T06:01:58.527Z,59.35
2023-04-22T06:04:26.155Z,58.35
2023-04-22T06:06:54.356Z,57.71
2023-04-22T06:09:21.877Z,56.55
2023-04-22T06:11:49.322Z,56.03
2023-04-22T06:14:16.736Z,55.57
2023-04-22T06:16:45.489Z,55.41
2023-04-22T06:19:12.861Z,55.62
2023-04-22T06:21:42.027Z,54.79
2023-04-22T06:24:10.285Z,54.45
2023-04-22T06:26:37.808Z,53.51
2023-04-22T06:29:05.534Z,53.01
2023-04-22T06:31:33.325Z,52.71
2023-04-22T06:34:02.047Z,51.90
2023-04-22T06:36:30.743Z,51.99
2023-04-22T06:38:58.385Z,51.22
2023-04-22T06:41:25.840Z,50.86
2023-04-22T06:43:53.198Z,50.81
2023-04-22T06:46:20.741Z,50.75
2023-04-22T06:48:48.161Z,50.33
2023-04-22T06:51:16.822Z,50.41
2023-04-22T06:53:44.182Z,49.58
2023-04-22T06:56:11.962Z,49.35
2023-04-22T06:58:39.430Z,48.88
2023-04-22T07:01:06.828Z,48.59
2023-04-22T07:03:34.365Z,47.70
2023-04-22T07:06:02.147Z,47.79
2023-04-22T07:08:30.832Z,47.67
2023-04-22T07:10:58.541Z,46.98
2023-04-22T07:13:27.164Z,45.77
2023-04-22T07:15:54.677Z,45.65
2023-04-22T07:18:22.173Z,45.54
2023-04-22T07:20:49.529Z,45.67
2023-04-22T07:23:16.926Z,44.82
2023-04-22T07:25:45.690Z,44.56
2023-04-22T07:28:13.054Z,44.90
2023-04-22T07:30:40.455Z,45.33
2023-04-22T07:33:07.969Z,44.29
2023-04-22T07:35:36.238Z,44.22
2023-04-22T07:38:03.708Z,43.76
2023-04-22T07:40:31.082Z,44.36
2023-04-22T07:42:59.789Z,44.87
2023-04-22T07:45:27.207Z,43.61
2023-04-22T07:47:54.638Z,43.52
2023-04-22T07:50:22.160Z,44.12
2023-04-22T07:52:49.531Z,42.79
2023-04-22T07:55:17.068Z,42.52
2023-04-22T07:57:44.455Z,43.03
2023-04-22T08:00:15.153Z,41.96
2023-04-22T08:02:44.073Z,42.14
2023-04-22T08:05:11.887Z,41.93
2023-04-22T08:07:39.534Z,41.40
2023-04-22T08:10:08.268Z,41.65
2023-04-22T08:12:35.765Z,42.05
2023-04-22T08:15:03.191Z,41.36
2023-04-22T08:17:31.920Z,40.72
2023-04-22T08:19:59.358Z,40.43
2023-04-22T08:22:27.477Z,39.80
2023-04-22T08:24:54.877Z,40.42
2023-04-22T08:27:22.855Z,39.56
2023-04-22T08:29:50.272Z,39.29
2023-04-22T08:32:19.645Z,38.95
2023-04-22T08:37:17.862Z,38.85
2023-04-22T08:39:45.356Z,38.28
2023-04-22T08:42:13.550Z,38.13
2023-04-22T08:44:41.115Z,38.29
2023-04-22T08:47:10.323Z,39.04
2023-04-22T08:49:38.995Z,36.59
2023-04-22T08:52:09.431Z,36.22
2023-04-22T08:54:37.400Z,36.05
2023-04-22T08:57:05.999Z,35.34
2023-04-22T08:59:34.755Z,36.00
2023-04-22T09:02:04.058Z,35.29
2023-04-22T09:04:32.092Z,35.78
2023-04-22T09:07:00.760Z,35.27
2023-04-22T09:09:31.672Z,34.69
2023-04-22T09:11:59.119Z,35.19
2023-04-22T09:14:27.132Z,35.08
2023-04-22T09:16:54.604Z,35.28
2023-04-22T09:19:25.321Z,34.50
2023-04-22T09:21:54.433Z,34.14
2023-04-22T09:24:22.024Z,32.60
2023-04-22T09:26:50.799Z,33.08
2023-04-22T09:29:18.234Z,33.02
2023-04-22T09:31:49.875Z,32.58
2023-04-22T09:34:17.649Z,32.77
2023-04-22T09:36:48.680Z,33.34
2023-04-22T09:39:16.590Z,32.44
2023-04-22T09:41:44.261Z,32.36
2023-04-22T09:44:16.795Z,33.08
2023-04-22T09:46:45.308Z,32.44
2023-04-22T09:49:13.250Z,32.79
2023-04-22T09:51:41.940Z,32.51
2023-04-22T09:54:11.355Z,32.54
2023-04-22T09:56:48.334Z,32.25
2023-04-22T09:59:21.333Z,32.12
2023-04-22T10:01:50.671Z,32.48
2023-04-22T10:04:21.398Z,32.51
2023-04-22T10:06:49.366Z,32.93
2023-04-22T10:09:18.976Z,31.74
2023-04-22T10:11:46.507Z,32.00
2023-04-22T10:14:14.811Z,31.76
2023-04-22T10:16:45.948Z,32.54
2023-04-22T10:19:18.121Z,32.29
2023-04-22T10:21:47.910Z,31.60
2023-04-22T10:24:17.741Z,30.87
2023-04-22T10:26:52.161Z,31.85
2023-04-22T10:29:21.635Z,31.69
2023-04-22T10:31:57.279Z,32.42
2023-04-22T10:34:25.130Z,31.62
2023-04-22T10:37:01.211Z,32.38
2023-04-22T10:39:30.094Z,32.32
2023-04-22T10:42:06.222Z,31.26
2023-04-22T10:44:51.686Z,32.47
2023-04-22T10:47:28.446Z,31.46
2023-04-22T10:50:16.965Z,31.74
2023-04-22T10:52:47.292Z,31.72
2023-04-22T10:55:14.810Z,31.01
2023-04-22T10:57:43.848Z,31.48
2023-04-22T11:00:53.011Z,32.15
2023-04-22T11:03:27.456Z,32.45
2023-04-22T11:06:16.845Z,32.35
2023-04-22T11:08:48.290Z,31.21
2023-04-22T11:11:18.496Z,31.73
2023-04-22T11:13:47.467Z,31.31
2023-04-22T11:16:14.999Z,32.18
2023-04-22T11:18:48.633Z,32.90
2023-04-22T11:21:16.222Z,32.11
2023-04-22T11:23:51.774Z,31.74
2023-04-22T11:26:19.520Z,31.95
2023-04-22T11:28:47.386Z,32.11
2023-04-22T11:31:15.425Z,31.74
2023-04-22T11:33:44.255Z,31.74
2023-04-22T11:36:12.542Z,31.30
2023-04-22T11:38:40.193Z,31.16
2023-04-22T11:41:07.611Z,31.49
2023-04-22T11:43:34.973Z,31.22
2023-04-22T11:46:05.071Z,31.99
2023-04-22T11:48:32.526Z,31.90
2023-04-22T11:51:12.796Z,31.37
2023-04-22T11:53:41.209Z,31.18
2023-04-22T11:56:08.717Z,31.16
2023-04-22T11:58:40.035Z,30.96
2023-04-22T12:01:07.461Z,31.37
2023-04-22T12:03:35.291Z,31.81
2023-04-22T12:06:05.426Z,31.34
2023-04-22T12:08:36.661Z,31.45
2023-04-22T12:11:05.500Z,30.87
2023-04-22T12:13:34.961Z,30.40
2023-04-22T12:16:04.440Z,31.35
2023-04-22T12:18:32.284Z,31.37
2023-04-22T12:21:09.021Z,31.14
2023-04-22T12:23:44.336Z,32.13
2023-04-22T12:26:12.164Z,31.14
2023-04-22T12:28:40.496Z,31.03
2023-04-22T12:31:08.923Z,31.27
2023-04-22T12:33:37.844Z,31.95
2023-04-22T12:36:06.108Z,31.51
2023-04-22T12:38:33.765Z,32.52
2023-04-22T12:41:02.570Z,31.90
2023-04-22T12:43:29.910Z,31.86
2023-04-22T12:45:57.296Z,31.43
2023-04-22T12:48:24.682Z,31.34
2023-04-22T12:50:52.082Z,31.45
2023-04-22T12:53:19.523Z,31.12
2023-04-22T12:55:48.118Z,31.93
2023-04-22T12:58:16.964Z,31.63
2023-04-22T13:00:44.344Z,31.69
2023-04-22T13:03:12.206Z,30.76
2023-04-22T13:05:40.439Z,31.42
2023-04-22T13:08:08.354Z,31.44
2023-04-22T13:10:36.135Z,31.33
2023-04-22T13:13:16.863Z,31.06
2023-04-22T13:15:47.878Z,31.02
2023-04-22T13:18:16.115Z,30.44
2023-04-22T13:20:43.610Z,30.67
2023-04-22T13:23:11.473Z,31.06
2023-04-22T13:25:38.913Z,30.45
2023-04-22T13:28:06.457Z,31.45
2023-04-22T13:30:33.946Z,30.28
2023-04-22T13:33:03.221Z,30.38
2023-04-22T13:35:31.434Z,30.02
2023-04-22T13:37:59.077Z,30.32
2023-04-22T13:40:27.251Z,30.80
2023-04-22T13:42:54.898Z,31.09
2023-04-22T13:45:22.378Z,30.93
2023-04-22T13:47:49.846Z,31.39
2023-04-22T13:50:18.781Z,30.63
2023-04-22T13:52:46.631Z,30.23
2023-04-22T13:55:14.052Z,31.08
2023-04-22T13:57:41.480Z,31.16
2023-04-22T14:00:10.078Z,31.79
2023-04-22T14:02:37.679Z,31.00
2023-04-22T14:05:05.827Z,30.64
2023-04-22T14:07:34.501Z,30.96
2023-04-22T14:10:01.874Z,31.33
2023-04-22T14:12:29.260Z,30.98
2023-04-22T14:14:56.659Z,31.45
2023-04-22T14:17:24.048Z,31.07
2023-04-22T14:19:51.414Z,30.18
2023-04-22T14:22:18.777Z,31.00
2023-04-22T14:24:48.628Z,30.83
2023-04-22T14:27:16.022Z,30.63
2023-04-22T14:29:43.893Z,30.91
2023-04-22T14:32:11.281Z,31.20
2023-04-22T14:34:39.126Z,31.94
2023-04-22T14:37:07.409Z,31.56
2023-04-22T14:39:34.796Z,31.32
2023-04-22T14:42:04.329Z,31.44
2023-04-22T14:44:32.030Z,30.59
2023-04-22T14:46:59.413Z,31.44
2023-04-22T14:49:26.790Z,31.98
2023-04-22T14:51:54.218Z,30.96
2023-04-22T14:54:21.584Z,31.05
2023-04-22T14:56:48.939Z,30.21
2023-04-22T14:59:17.628Z,31.13
2023-04-22T15:01:45.095Z,30.90
2023-04-22T15:04:14.897Z,30.74
2023-04-22T15:06:42.406Z,30.92
2023-04-22T15:09:09.839Z,31.05
2023-04-22T15:11:37.230Z,31.73
2023-04-22T15:14:04.599Z,31.87
2023-04-22T15:16:33.396Z,32.17
2023-04-22T15:19:00.907Z,32.56
2023-04-22T15:21:28.257Z,32.78
2023-04-22T15:23:55.744Z,32.32
2023-04-22T15:26:23.132Z,32.39
2023-04-22T15:28:51.369Z,32.19
2023-04-22T15:31:18.792Z,32.20
2023-04-22T15:33:47.886Z,32.57
2023-04-22T15:36:18.074Z,33.27
2023-04-22T15:38:45.523Z,33.04
2023-04-22T15:41:13.018Z,33.39
2023-04-22T15:43:40.546Z,33.62
2023-04-22T15:46:08.441Z,33.64
2023-04-22T15:48:35.885Z,33.71
2023-04-22T15:51:04.774Z,34.76
2023-04-22T15:53:32.880Z,34.29
2023-04-22T15:56:00.245Z,34.60
2023-04-22T15:58:28.966Z,35.58
2023-04-22T16:01:11.429Z,35.81
2023-04-22T16:03:45.356Z,35.97
2023-04-22T16:06:14.411Z,36.24
2023-04-22T16:08:41.788Z,36.48
2023-04-22T16:11:09.267Z,36.15
2023-04-22T16:13:38.733Z,36.38
2023-04-22T16:16:06.526Z,36.64
2023-04-22T16:18:34.161Z,37.05
2023-04-22T16:21:02.160Z,36.92
2023-04-22T16:23:31.065Z,37.49
2023-04-22T16:25:58.710Z,37.38
2023-04-22T16:28:26.112Z,38.10
2023-04-22T16:30:53.541Z,37.44
2023-04-22T16:33:20.943Z,38.19
2023-04-22T16:35:48.303Z,37.88
2023-04-22T16:38:15.677Z,37.70
2023-04-22T16:40:44.335Z,38.30
2023-04-22T16:43:12.826Z,37.79
2023-04-22T16:45:40.429Z,38.12
2023-04-22T16:48:07.844Z,38.10
2023-04-22T16:50:35.234Z,38.13
2023-04-22T16:53:02.618Z,38.00
2023-04-22T16:55:30.029Z,37.96
2023-04-22T16:58:00.914Z,38.11
2023-04-22T17:00:28.351Z,37.81
2023-04-22T17:02:56.023Z,37.69
2023-04-22T17:05:23.591Z,37.93
2023-04-22T17:07:50.993Z,38.15
2023-04-22T17:10:18.541Z,38.63
2023-04-22T17:12:47.600Z,38.33
2023-04-22T17:15:16.494Z,38.36
2023-04-22T17:17:44.428Z,38.76
2023-04-22T17:20:12.297Z,38.06
2023-04-22T17:22:39.758Z,38.14
2023-04-22T17:25:07.914Z,41.93
2023-04-22T17:27:35.369Z,37.78
2023-04-22T17:30:03.236Z,36.37
2023-04-22T17:32:32.146Z,37.92
2023-04-22T17:34:59.650Z,39.24
2023-04-22T17:37:27.055Z,39.28
2023-04-22T17:39:56.203Z,39.85
2023-04-22T17:42:25.281Z,40.41
2023-04-22T17:45:00.036Z,39.98
2023-04-22T17:47:27.637Z,40.93
2023-04-22T17:49:56.831Z,41.45
2023-04-22T17:52:24.305Z,41.55
2023-04-22T17:54:52.066Z,41.53
2023-04-22T17:57:19.499Z,42.04
2023-04-22T17:59:46.890Z,43.52
2023-04-22T18:02:15.013Z,44.16
2023-04-22T18:04:42.514Z,43.60
2023-04-22T18:07:11.242Z,44.73
2023-04-22T18:09:39.054Z,46.21
2023-04-22T18:12:06.981Z,47.16
2023-04-22T18:14:34.622Z,47.73
2023-04-22T18:17:02.739Z,47.44
2023-04-22T18:19:30.230Z,49.06
2023-04-22T18:22:00.418Z,48.27
2023-04-22T18:24:29.488Z,48.81
2023-04-22T18:26:56.887Z,51.14
2023-04-22T18:29:24.266Z,51.16
2023-04-22T18:31:51.702Z,51.72
2023-04-22T18:34:19.444Z,51.66
2023-04-22T18:36:46.834Z,53.79
2023-04-22T18:39:14.271Z,53.07
2023-04-22T18:41:43.211Z,55.02
2023-04-22T18:44:10.673Z,55.79
2023-04-22T18:46:38.046Z,55.67
2023-04-22T18:49:05.510Z,57.51
2023-04-22T18:51:33.315Z,58.23
2023-04-22T18:54:01.052Z,55.89
2023-04-22T18:56:30.004Z,56.74
2023-04-22T18:58:58.722Z,56.98
2023-04-22T19:01:26.276Z,56.89
2023-04-22T19:03:53.733Z,57.11
2023-04-22T19:06:21.157Z,59.23
2023-04-22T19:08:51.621Z,58.51
2023-04-22T19:11:19.029Z,58.11
2023-04-22T19:13:46.753Z,56.70
2023-04-22T19:16:15.655Z,56.62
2023-04-22T19:18:44.639Z,54.96
2023-04-22T19:21:12.099Z,54.15
2023-04-22T19:23:40.650Z,55.98
2023-04-22T19:26:09.488Z,56.36
2023-04-22T19:28:37.152Z,54.54
2023-04-22T19:31:05.467Z,55.56
2023-04-22T19:33:34.491Z,53.59
2023-04-22T19:36:01.984Z,54.34
2023-04-22T19:38:29.398Z,52.74
2023-04-22T19:40:56.884Z,53.17
2023-04-22T19:43:24.260Z,54.06
2023-04-22T19:45:51.951Z,52.42
2023-04-22T19:48:19.752Z,51.73
2023-04-22T19:50:49.468Z,52.49
2023-04-22T19:53:17.729Z,51.95
2023-04-22T19:55:45.828Z,52.21
2023-04-22T19:58:13.880Z,52.08
2023-04-22T20:00:42.685Z,52.33
2023-04-22T20:03:11.065Z,52.51
2023-04-22T20:05:39.070Z,52.89
2023-04-22T20:08:09.004Z,54.18
2023-04-22T20:10:37.348Z,53.85
2023-04-22T20:13:05.645Z,52.36
2023-04-22T20:15:33.532Z,52.56
2023-04-22T20:18:01.216Z,52.79
2023-04-22T20:20:29.329Z,52.52
2023-04-22T20:23:01.510Z,52.84
2023-04-22T20:25:31.521Z,53.94
2023-04-22T20:27:59.589Z,54.72
2023-04-22T20:30:27.789Z,55.89
2023-04-22T20:32:55.398Z,55.60
2023-04-22T20:35:23.357Z,55.49
2023-04-22T20:37:52.772Z,55.54
2023-04-22T20:40:23.288Z,56.35
2023-04-22T20:42:54.973Z,55.74
2023-04-22T20:45:25.808Z,55.62
2023-04-22T20:47:53.389Z,55.93
2023-04-22T20:50:21.583Z,56.33
2023-04-22T20:52:49.236Z,56.43
2023-04-22T20:55:17.213Z,56.58
2023-04-22T20:57:44.885Z,56.67
2023-04-22T21:00:16.069Z,56.87
2023-04-22T21:02:44.715Z,57.08
2023-04-22T21:05:13.151Z,56.90
2023-04-22T21:07:41.333Z,56.69
2023-04-22T21:10:10.302Z,56.35
2023-04-22T21:12:38.894Z,55.96
2023-04-22T21:15:07.700Z,56.19
2023-04-22T21:17:38.396Z,56.33
2023-04-22T21:20:09.148Z,56.02
2023-04-22T21:22:38.351Z,56.02
2023-04-22T21:25:07.085Z,56.53
2023-04-22T21:27:35.249Z,56.44
2023-04-22T21:30:03.310Z,56.86
2023-04-22T21:32:32.682Z,57.70
2023-04-22T21:35:01.716Z,57.36
2023-04-22T21:37:29.120Z,57.72
2023-04-22T21:39:56.529Z,57.69
2023-04-22T21:42:23.946Z,57.81
2023-04-22T21:44:51.321Z,57.87
2023-04-22T21:47:18.862Z,58.63
2023-04-22T21:49:46.948Z,58.50
2023-04-22T21:52:16.356Z,57.98
2023-04-22T21:54:43.962Z,57.97
2023-04-22T21:57:11.765Z,56.78
2023-04-22T21:59:39.146Z,56.65
2023-04-22T22:02:06.640Z,57.43
2023-04-22T22:04:35.027Z,57.19
2023-04-22T22:07:02.696Z,57.75
2023-04-22T22:09:31.667Z,57.85
2023-04-22T22:11:59.041Z,57.53
2023-04-22T22:14:26.404Z,57.43
2023-04-22T22:16:54.548Z,57.86
2023-04-22T22:19:21.955Z,57.65
2023-04-22T22:21:49.375Z,57.23
2023-04-22T22:24:17.099Z,57.90
2023-04-22T22:26:45.771Z,57.79
2023-04-22T22:29:15.472Z,58.11
2023-04-22T22:31:43.141Z,58.26
2023-04-22T22:34:10.715Z,58.55
2023-04-22T22:36:38.207Z,58.09
2023-04-22T22:39:06.231Z,57.73
2023-04-22T22:41:33.619Z,58.81
2023-04-22T22:44:02.613Z,57.01
2023-04-22T22:46:31.228Z,58.01
2023-04-22T22:48:59.238Z,57.90
2023-04-22T22:51:29.850Z,58.16
2023-04-22T22:53:57.282Z,57.72
2023-04-22T22:56:24.852Z,59.04
2023-04-22T22:58:52.293Z,59.22
2023-04-22T23:01:21.025Z,59.04
2023-04-22T23:03:48.944Z,57.87
2023-04-22T23:06:16.420Z,58.30
2023-04-22T23:08:43.905Z,60.20
2023-04-22T23:11:11.387Z,61.04
2023-04-22T23:13:38.735Z,61.31
2023-04-22T23:16:06.603Z,61.77
2023-04-22T23:18:37.287Z,61.36
2023-04-22T23:21:05.952Z,61.51
2023-04-22T23:23:33.741Z,61.62
2023-04-22T23:26:01.617Z,61.91
2023-04-22T23:28:29.554Z,61.76
2023-04-22T23:30:58.060Z,63.13
2023-04-22T23:33:27.047Z,64.14
2023-04-22T23:35:58.118Z,62.70
2023-04-22T23:38:25.565Z,65.28
2023-04-22T23:40:52.953Z,62.85
2023-04-22T23:43:20.317Z,63.73
2023-04-22T23:45:47.725Z,62.72
2023-04-22T23:48:15.162Z,62.19
2023-04-22T23:50:42.570Z,61.36
2023-04-22T23:53:11.244Z,62.82
2023-04-22T23:55:39.324Z,64.86
2023-04-22T23:58:06.927Z,64.37
